createdAt,value
2023-02-05T00:01:35.427Z,51.63
2023-02-05T00:04:02.294Z,51.37
2023-02-05T00:06:30.901Z,51.60
2023-02-05T00:09:06.324Z,51.97
2023-02-05T00:11:33.265Z,52.29
2023-02-05T00:14:08.507Z,49.91
2023-02-05T00:16:38.181Z,51.49
2023-02-05T00:19:05.078Z,52.36
2023-02-05T00:21:32.293Z,51.63
2023-02-05T00:24:13.309Z,50.87
2023-02-05T00:26:41.512Z,52.39
2023-02-05T00:29:11.235Z,51.76
2023-02-05T00:31:40.410Z,51.89
2023-02-05T00:36:54.731Z,52.13
2023-02-05T00:39:23.851Z,53.05
2023-02-05T00:41:56.399Z,53.27
2023-02-05T00:44:24.694Z,50.14
2023-02-05T00:47:08.080Z,49.91
2023-02-05T00:49:43.185Z,52.67
2023-02-05T00:52:10.239Z,51.91
2023-02-05T00:54:40.175Z,51.36
2023-02-05T00:57:13.864Z,52.79
2023-02-05T00:59:55.579Z,52.84
2023-02-05T01:02:24.460Z,53.98
2023-02-05T01:04:53.127Z,54.23
2023-02-05T01:07:23.520Z,53.66
2023-02-05T01:09:53.219Z,53.35
2023-02-05T01:12:21.195Z,54.35
2023-02-05T01:14:58.834Z,53.69
2023-02-05T01:17:25.628Z,53.31
2023-02-05T01:19:55.591Z,55.16
2023-02-05T01:22:29.561Z,54.16
2023-02-05T01:24:56.345Z,54.34
2023-02-05T01:27:47.690Z,55.55
2023-02-05T01:30:20.968Z,51.94
2023-02-05T01:32:47.806Z,56.37
2023-02-05T01:35:19.024Z,52.37
2023-02-05T01:37:45.894Z,53.14
2023-02-05T01:40:15.946Z,55.86
2023-02-05T01:42:48.833Z,52.35
2023-02-05T01:45:41.619Z,54.57
2023-02-05T01:48:09.708Z,51.82
2023-02-05T01:50:48.208Z,54.62
2023-02-05T01:53:35.426Z,53.70
2023-02-05T01:56:10.461Z,53.49
2023-02-05T01:59:07.508Z,52.10
2023-02-05T02:01:37.737Z,52.79
2023-02-05T02:04:05.309Z,53.92
2023-02-05T02:06:37.092Z,52.39
2023-02-05T02:11:58.348Z,54.67
2023-02-05T02:14:34.994Z,52.33
2023-02-05T02:17:03.964Z,55.17
2023-02-05T02:19:46.011Z,56.11
2023-02-05T02:22:35.355Z,50.30
2023-02-05T02:25:20.581Z,51.59
2023-02-05T02:27:57.387Z,55.40
2023-02-05T02:30:37.219Z,57.26
2023-02-05T02:33:24.111Z,56.64
2023-02-05T02:36:23.364Z,52.28
2023-02-05T02:39:38.227Z,53.33
2023-02-05T02:42:11.434Z,54.57
2023-02-05T02:44:53.619Z,56.25
2023-02-05T02:47:38.658Z,53.82
2023-02-05T02:50:27.485Z,53.73
2023-02-05T02:52:56.963Z,55.12
2023-02-05T02:55:31.651Z,56.08
2023-02-05T02:58:10.662Z,55.46
2023-02-05T03:00:43.666Z,56.74
2023-02-05T03:03:13.968Z,55.79
2023-02-05T03:05:43.362Z,56.29
2023-02-05T03:08:34.996Z,55.55
2023-02-05T03:11:22.083Z,56.94
2023-02-05T03:13:49.301Z,57.51
2023-02-05T03:16:27.337Z,56.24
2023-02-05T03:18:56.609Z,53.29
2023-02-05T03:21:32.217Z,55.17
2023-02-05T03:24:00.677Z,52.10
2023-02-05T03:26:35.216Z,51.21
2023-02-05T03:29:14.942Z,50.95
2023-02-05T03:31:53.774Z,51.49
2023-02-05T03:34:36.951Z,56.33
2023-02-05T03:37:36.754Z,54.69
2023-02-05T03:40:19.277Z,53.17
2023-02-05T03:43:12.283Z,57.08
2023-02-05T03:46:09.835Z,53.21
2023-02-05T03:48:55.106Z,53.68
2023-02-05T03:51:46.576Z,58.32
2023-02-05T03:54:43.071Z,55.26
2023-02-05T03:57:38.513Z,55.68
2023-02-05T04:00:09.246Z,56.64
2023-02-05T04:02:37.394Z,58.53
2023-02-05T04:05:13.050Z,59.12
2023-02-05T04:07:45.817Z,59.24
2023-02-05T04:10:12.577Z,59.10
2023-02-05T04:12:48.480Z,57.66
2023-02-05T04:15:16.607Z,58.13
2023-02-05T04:17:43.489Z,59.65
2023-02-05T04:20:13.438Z,60.71
2023-02-05T04:22:44.990Z,60.84
2023-02-05T04:25:11.828Z,58.61
2023-02-05T04:27:39.092Z,56.53
2023-02-05T04:30:07.035Z,59.51
2023-02-05T04:32:37.334Z,56.61
2023-02-05T04:35:10.501Z,54.24
2023-02-05T04:37:37.448Z,54.15
2023-02-05T04:40:40.733Z,56.23
2023-02-05T04:43:07.827Z,55.18
2023-02-05T04:45:36.926Z,57.67
2023-02-05T04:48:06.802Z,57.94
2023-02-05T04:50:33.706Z,52.40
2023-02-05T04:53:02.381Z,54.20
2023-02-05T04:55:38.590Z,58.88
2023-02-05T04:58:17.921Z,56.32
2023-02-05T05:00:57.207Z,53.84
2023-02-05T05:03:31.701Z,54.51
2023-02-05T05:06:05.161Z,56.31
2023-02-05T05:08:47.697Z,57.97
2023-02-05T05:11:45.147Z,57.64
2023-02-05T05:14:24.585Z,58.10
2023-02-05T05:16:51.505Z,59.63
2023-02-05T05:19:21.314Z,61.06
2023-02-05T05:21:57.338Z,61.79
2023-02-05T05:24:27.460Z,61.91
2023-02-05T05:26:59.918Z,62.25
2023-02-05T05:29:39.614Z,62.43
2023-02-05T05:32:09.519Z,62.35
2023-02-05T05:34:36.771Z,63.16
2023-02-05T05:37:07.800Z,63.41
2023-02-05T05:39:57.028Z,63.65
2023-02-05T05:42:45.144Z,62.77
2023-02-05T05:45:15.121Z,62.64
2023-02-05T05:47:45.163Z,62.94
2023-02-05T05:50:15.034Z,63.21
2023-02-05T05:52:50.081Z,63.03
2023-02-05T05:55:19.384Z,62.79
2023-02-05T05:57:47.139Z,63.95
2023-02-05T06:00:14.882Z,63.89
2023-02-05T06:02:41.947Z,63.70
2023-02-05T06:05:08.990Z,63.75
2023-02-05T06:07:38.588Z,63.51
2023-02-05T06:10:10.306Z,62.35
2023-02-05T06:12:46.174Z,62.20
2023-02-05T06:15:23.312Z,63.15
2023-02-05T06:17:59.203Z,63.82
2023-02-05T06:20:26.070Z,63.07
2023-02-05T06:22:53.135Z,63.49
2023-02-05T06:25:20.278Z,62.78
2023-02-05T06:27:47.476Z,64.07
2023-02-05T06:30:18.659Z,64.18
2023-02-05T06:32:55.333Z,64.06
2023-02-05T06:35:34.398Z,64.48
2023-02-05T06:38:10.379Z,65.29
2023-02-05T06:40:49.762Z,65.89
2023-02-05T06:43:19.083Z,66.32
2023-02-05T06:45:48.259Z,66.53
2023-02-05T06:48:18.082Z,66.75
2023-02-05T06:50:47.916Z,66.48
2023-02-05T06:53:23.562Z,66.26
2023-02-05T06:55:57.130Z,65.03
2023-02-05T06:58:24.212Z,61.87
2023-02-05T07:00:57.334Z,62.91
2023-02-05T07:03:24.534Z,62.56
2023-02-05T07:05:53.839Z,61.54
2023-02-05T07:08:24.526Z,60.94
2023-02-05T07:11:04.464Z,62.42
2023-02-05T07:13:44.677Z,62.60
2023-02-05T07:16:16.591Z,62.02
2023-02-05T07:24:22.960Z,63.24
2023-02-05T07:27:11.014Z,62.74
2023-02-05T07:29:40.808Z,63.31
2023-02-05T07:32:13.117Z,63.51
2023-02-05T07:34:54.753Z,62.79
2023-02-05T07:37:25.435Z,62.43
2023-02-05T07:39:53.124Z,61.65
2023-02-05T07:42:20.029Z,62.29
2023-02-05T07:44:46.864Z,62.01
2023-02-05T07:48:03.190Z,61.75
2023-02-05T07:50:42.416Z,60.93
2023-02-05T07:53:14.018Z,60.58
2023-02-05T07:55:59.729Z,58.27
2023-02-05T07:58:26.714Z,57.93
2023-02-05T08:01:02.984Z,57.23
2023-02-05T08:03:32.044Z,57.25
2023-02-05T08:06:05.544Z,57.47
2023-02-05T08:08:35.376Z,56.08
2023-02-05T08:11:07.006Z,56.41
2023-02-05T08:13:34.772Z,55.50
2023-02-05T08:16:08.168Z,55.32
2023-02-05T08:18:35.233Z,51.51
2023-02-05T08:21:07.969Z,52.88
2023-02-05T08:23:43.406Z,53.91
2023-02-05T08:26:21.004Z,52.03
2023-02-05T08:28:52.764Z,52.21
2023-02-05T08:31:20.495Z,53.41
2023-02-05T08:33:50.902Z,49.73
2023-02-05T08:36:27.233Z,46.57
2023-02-05T08:38:55.498Z,53.65
2023-02-05T08:41:25.624Z,51.61
2023-02-05T08:43:52.640Z,51.98
2023-02-05T08:46:40.178Z,49.85
2023-02-05T08:49:27.822Z,50.67
2023-02-05T08:57:39.370Z,50.07
2023-02-05T09:00:07.991Z,45.68
2023-02-05T09:02:42.038Z,47.68
2023-02-05T09:05:09.864Z,44.56
2023-02-05T09:07:44.707Z,49.41
2023-02-05T09:10:20.237Z,47.24
2023-02-05T09:12:48.991Z,47.61
2023-02-05T09:15:16.834Z,48.29
2023-02-05T09:17:47.966Z,46.47
2023-02-05T09:20:18.286Z,45.95
2023-02-05T09:22:57.964Z,47.23
2023-02-05T09:25:34.474Z,42.58
2023-02-05T09:28:11.843Z,45.48
2023-02-05T09:31:05.751Z,42.35
2023-02-05T09:33:46.514Z,46.54
2023-02-05T09:36:29.442Z,42.89
2023-02-05T09:39:34.612Z,45.92
2023-02-05T09:42:27.887Z,45.17
2023-02-05T09:45:10.088Z,44.49
2023-02-05T09:47:52.036Z,41.66
2023-02-05T09:50:41.874Z,40.35
2023-02-05T09:53:19.470Z,43.49
2023-02-05T09:55:47.852Z,45.74
2023-02-05T09:58:38.210Z,43.20
2023-02-05T10:01:14.883Z,44.59
2023-02-05T10:03:47.296Z,44.57
2023-02-05T10:06:21.442Z,44.14
2023-02-05T10:09:06.843Z,44.83
2023-02-05T10:12:13.874Z,39.37
2023-02-05T10:15:24.518Z,39.95
2023-02-05T10:18:29.098Z,44.37
2023-02-05T10:21:20.409Z,42.98
2023-02-05T10:24:10.922Z,43.07
2023-02-05T10:26:57.625Z,43.53
2023-02-05T10:29:31.513Z,43.98
2023-02-05T10:32:11.975Z,43.28
2023-02-05T10:34:58.224Z,42.83
2023-02-05T10:38:04.618Z,42.85
2023-02-05T10:40:39.442Z,39.96
2023-02-05T10:43:30.083Z,41.76
2023-02-05T10:46:01.470Z,42.42
2023-02-05T10:49:13.859Z,42.26
2023-02-05T10:51:47.496Z,43.41
2023-02-05T10:54:41.934Z,43.82
2023-02-05T10:57:29.769Z,42.82
2023-02-05T11:00:15.826Z,39.78
2023-02-05T11:02:50.515Z,43.14
2023-02-05T11:05:20.552Z,41.67
2023-02-05T11:07:57.562Z,42.78
2023-02-05T11:10:29.751Z,43.56
2023-02-05T11:13:22.135Z,44.24
2023-02-05T11:16:09.304Z,43.62
2023-02-05T11:18:45.968Z,43.02
2023-02-05T11:24:02.165Z,42.04
2023-02-05T11:26:43.381Z,42.69
2023-02-05T11:29:40.259Z,43.53
2023-02-05T11:32:41.470Z,43.54
2023-02-05T11:35:34.292Z,42.55
2023-02-05T11:38:29.962Z,41.23
2023-02-05T11:41:08.060Z,44.25
2023-02-05T11:43:39.326Z,43.72
2023-02-05T11:46:20.237Z,44.37
2023-02-05T11:48:58.933Z,44.33
2023-02-05T11:51:35.041Z,43.24
2023-02-05T11:54:21.490Z,44.65
2023-02-05T11:57:29.017Z,43.87
2023-02-05T11:59:58.350Z,44.18
2023-02-05T12:02:31.242Z,44.57
2023-02-05T12:05:04.456Z,43.51
2023-02-05T12:08:14.693Z,44.49
2023-02-05T12:11:08.761Z,42.74
2023-02-05T12:13:54.291Z,41.79
2023-02-05T12:16:33.534Z,43.55
2023-02-05T12:19:14.993Z,43.90
2023-02-05T12:21:55.066Z,42.19
2023-02-05T12:24:43.645Z,41.34
2023-02-05T12:27:50.187Z,41.99
2023-02-05T12:30:38.285Z,43.27
2023-02-05T12:33:51.971Z,43.58
2023-02-05T12:36:48.388Z,43.63
2023-02-05T12:39:31.700Z,41.09
2023-02-05T12:42:18.296Z,43.67
2023-02-05T12:44:54.067Z,43.93
2023-02-05T12:47:55.999Z,43.42
2023-02-05T12:51:12.013Z,41.37
2023-02-05T12:53:58.342Z,40.44
2023-02-05T12:56:37.209Z,43.22
2023-02-05T12:59:11.996Z,43.07
2023-02-05T13:01:51.454Z,43.18
2023-02-05T13:04:41.455Z,43.09
2023-02-05T13:07:22.994Z,44.11
2023-02-05T13:10:24.380Z,43.64
2023-02-05T13:13:11.895Z,43.34
2023-02-05T13:16:03.348Z,44.40
2023-02-05T13:18:39.708Z,44.51
2023-02-05T13:21:40.461Z,44.55
2023-02-05T13:24:48.413Z,43.60
2023-02-05T13:27:52.811Z,42.96
2023-02-05T13:30:40.917Z,43.58
2023-02-05T13:33:17.302Z,43.86
2023-02-05T13:36:24.722Z,43.32
2023-02-05T13:39:49.719Z,43.63
2023-02-05T13:43:04.352Z,43.96
2023-02-05T13:46:12.094Z,42.90
2023-02-05T13:49:00.282Z,42.27
2023-02-05T13:51:46.161Z,43.96
2023-02-05T13:54:27.969Z,43.51
2023-02-05T13:56:57.625Z,41.67
2023-02-05T13:59:43.914Z,42.72
2023-02-05T14:02:48.089Z,42.95
2023-02-05T14:05:33.509Z,43.82
2023-02-05T14:08:03.828Z,42.47
2023-02-05T14:10:55.938Z,43.23
2023-02-05T14:13:34.797Z,43.34
2023-02-05T14:16:27.009Z,43.48
2023-02-05T14:19:03.030Z,44.45
2023-02-05T14:21:39.596Z,44.17
2023-02-05T14:24:40.624Z,43.93
2023-02-05T14:27:31.628Z,44.22
2023-02-05T14:30:49.908Z,42.51
2023-02-05T14:33:49.305Z,42.82
2023-02-05T14:36:27.603Z,43.93
2023-02-05T14:39:03.934Z,44.03
2023-02-05T14:42:01.296Z,43.90
2023-02-05T14:44:42.460Z,43.35
2023-02-05T14:47:34.034Z,43.96
2023-02-05T14:50:17.869Z,44.21
2023-02-05T14:53:01.878Z,43.55
2023-02-05T14:55:40.896Z,42.90
2023-02-05T14:58:51.738Z,43.66
2023-02-05T15:01:31.099Z,44.35
2023-02-05T15:04:01.286Z,44.41
2023-02-05T15:09:39.641Z,44.39
2023-02-05T15:12:31.566Z,44.20
2023-02-05T15:15:06.683Z,43.11
2023-02-05T15:17:47.297Z,44.22
2023-02-05T15:20:28.292Z,42.12
2023-02-05T15:23:11.804Z,42.31
2023-02-05T15:26:08.703Z,45.12
2023-02-05T15:29:11.782Z,41.72
2023-02-05T15:31:56.157Z,42.73
2023-02-05T15:34:40.280Z,42.79
2023-02-05T15:40:09.935Z,44.08
2023-02-05T15:42:55.814Z,44.27
2023-02-05T15:45:34.935Z,43.14
2023-02-05T15:48:12.246Z,44.37
2023-02-05T15:51:16.366Z,43.61
2023-02-05T15:53:51.657Z,43.59
2023-02-05T15:57:07.252Z,44.58
2023-02-05T15:59:40.902Z,43.81
2023-02-05T16:05:32.333Z,43.91
2023-02-05T16:08:03.383Z,43.91
2023-02-05T16:10:35.048Z,44.74
2023-02-05T16:13:35.198Z,44.43
2023-02-05T16:16:29.639Z,44.29
2023-02-05T16:19:16.676Z,44.61
2023-02-05T16:22:14.734Z,44.69
2023-02-05T16:25:04.780Z,44.50
2023-02-05T16:27:49.338Z,42.96
2023-02-05T16:30:59.168Z,43.55
2023-02-05T16:33:43.416Z,44.12
2023-02-05T16:36:25.235Z,40.98
2023-02-05T16:38:58.355Z,44.08
2023-02-05T16:41:37.617Z,43.68
2023-02-05T16:44:36.781Z,43.75
2023-02-05T16:47:34.476Z,44.29
2023-02-05T16:50:42.950Z,44.74
2023-02-05T16:53:42.240Z,44.38
2023-02-05T16:56:22.951Z,43.53
2023-02-05T16:59:21.766Z,44.68
2023-02-05T17:01:49.583Z,45.48
2023-02-05T17:05:01.593Z,44.44
2023-02-05T17:07:42.349Z,44.57
2023-02-05T17:10:15.996Z,42.12
2023-02-05T17:12:53.093Z,43.68
2023-02-05T17:15:50.083Z,45.17
2023-02-05T17:18:26.325Z,44.01
2023-02-05T17:21:29.061Z,44.29
2023-02-05T17:24:10.584Z,43.85
2023-02-05T17:29:23.673Z,43.85
2023-02-05T17:31:53.582Z,44.67
2023-02-05T17:34:20.469Z,44.88
2023-02-05T17:37:11.935Z,43.60
2023-02-05T17:39:57.310Z,44.83
2023-02-05T17:42:31.556Z,43.35
2023-02-05T17:45:04.267Z,43.59
2023-02-05T17:47:36.226Z,45.79
2023-02-05T17:50:05.040Z,44.26
2023-02-05T17:55:19.804Z,43.48
2023-02-05T17:57:54.589Z,46.72
2023-02-05T18:00:24.821Z,42.83
2023-02-05T18:03:04.027Z,46.48
2023-02-05T18:05:30.898Z,44.25
2023-02-05T18:07:58.919Z,43.41
2023-02-05T18:10:35.426Z,44.86
2023-02-05T18:13:08.430Z,46.63
2023-02-05T18:16:02.690Z,42.10
2023-02-05T18:18:41.618Z,42.61
2023-02-05T18:21:08.540Z,46.18
2023-02-05T18:23:39.765Z,45.79
2023-02-05T18:26:08.956Z,46.24
2023-02-05T18:28:54.502Z,45.63
2023-02-05T18:31:27.593Z,45.05
2023-02-05T18:34:08.867Z,43.60
2023-02-05T18:36:35.696Z,45.52
2023-02-05T18:39:05.828Z,44.89
2023-02-05T18:41:35.430Z,44.00
2023-02-05T18:44:02.444Z,44.08
2023-02-05T18:46:38.516Z,45.25
2023-02-05T18:49:13.094Z,45.43
2023-02-05T18:51:43.248Z,46.19
2023-02-05T18:54:11.572Z,48.59
2023-02-05T18:56:38.747Z,47.17
2023-02-05T18:59:14.477Z,48.00
2023-02-05T19:01:42.547Z,47.58
2023-02-05T19:04:16.066Z,47.30
2023-02-05T19:06:55.328Z,44.48
2023-02-05T19:09:31.709Z,45.70
2023-02-05T19:12:01.784Z,45.98
2023-02-05T19:14:28.754Z,46.77
2023-02-05T19:16:58.558Z,47.69
2023-02-05T19:19:27.003Z,48.92
2023-02-05T19:22:00.672Z,49.59
2023-02-05T19:24:28.822Z,49.81
2023-02-05T19:26:59.197Z,50.27
2023-02-05T19:29:27.352Z,51.00
2023-02-05T19:31:57.590Z,51.49
2023-02-05T19:34:28.075Z,51.26
2023-02-05T19:36:54.935Z,52.12
2023-02-05T19:39:22.092Z,52.99
2023-02-05T19:41:58.280Z,51.93
2023-02-05T19:44:36.869Z,53.69
2023-02-05T19:47:15.035Z,50.18
2023-02-05T19:49:43.719Z,49.57
2023-02-05T19:52:16.337Z,50.66
2023-02-05T19:54:44.493Z,51.89
2023-02-05T19:59:58.054Z,50.82
2023-02-05T20:02:35.567Z,49.38
2023-02-05T20:05:04.221Z,49.07
2023-02-05T20:07:38.684Z,49.64
2023-02-05T20:10:09.454Z,51.87
2023-02-05T20:12:39.058Z,51.62
2023-02-05T20:15:06.820Z,48.84
2023-02-05T20:17:35.316Z,48.32
2023-02-05T20:20:22.267Z,48.33
2023-02-05T20:22:55.940Z,54.69
2023-02-05T20:25:28.442Z,49.78
2023-02-05T20:27:56.923Z,49.11
2023-02-05T20:30:42.790Z,51.37
2023-02-05T20:33:12.330Z,48.76
2023-02-05T20:35:39.623Z,51.38
2023-02-05T20:38:10.093Z,50.85
2023-02-05T20:40:37.139Z,47.36
2023-02-05T20:43:07.318Z,50.69
2023-02-05T20:45:34.602Z,47.30
2023-02-05T20:48:02.872Z,48.75
2023-02-05T20:50:29.861Z,46.31
2023-02-05T20:52:56.978Z,51.73
2023-02-05T20:55:24.930Z,50.58
2023-02-05T20:57:51.800Z,47.60
2023-02-05T21:00:21.305Z,51.97
2023-02-05T21:02:50.444Z,49.07
2023-02-05T21:05:20.070Z,48.83
2023-02-05T21:08:02.111Z,51.19
2023-02-05T21:10:36.296Z,52.48
2023-02-05T21:13:09.391Z,50.30
2023-02-05T21:15:56.709Z,49.17
2023-02-05T21:18:27.143Z,51.50
2023-02-05T21:20:54.796Z,54.00
2023-02-05T21:23:21.977Z,53.93
2023-02-05T21:25:48.960Z,51.70
2023-02-05T21:28:18.714Z,50.29
2023-02-05T21:30:51.262Z,53.72
2023-02-05T21:33:18.553Z,50.91
2023-02-05T21:36:00.528Z,54.68
2023-02-05T21:38:35.564Z,53.55
2023-02-05T21:41:26.813Z,50.20
2023-02-05T21:43:56.020Z,49.85
2023-02-05T21:46:30.170Z,49.89
2023-02-05T21:49:01.875Z,51.26
2023-02-05T21:51:33.340Z,51.29
2023-02-05T21:56:48.502Z,53.29
2023-02-05T21:59:29.673Z,56.26
2023-02-05T22:01:56.500Z,52.71
2023-02-05T22:04:28.364Z,51.75
2023-02-05T22:06:58.693Z,53.49
2023-02-05T22:09:26.362Z,53.74
2023-02-05T22:12:05.971Z,53.47
2023-02-05T22:14:36.485Z,53.57
2023-02-05T22:17:07.425Z,53.77
2023-02-05T22:19:34.418Z,54.72
2023-02-05T22:22:30.784Z,55.16
2023-02-05T22:25:04.328Z,55.51
2023-02-05T22:27:40.073Z,56.10
2023-02-05T22:30:09.869Z,56.53
2023-02-05T22:32:36.935Z,56.33
2023-02-05T22:35:04.977Z,56.21
2023-02-05T22:37:50.247Z,56.39
2023-02-05T22:40:55.316Z,56.49
2023-02-05T22:44:03.064Z,57.23
2023-02-05T22:46:32.469Z,57.66
2023-02-05T22:52:29.602Z,58.07
2023-02-05T22:55:05.079Z,58.65
2023-02-05T22:57:50.849Z,57.87
2023-02-05T23:00:23.822Z,58.09
2023-02-05T23:02:51.091Z,58.72
2023-02-05T23:05:29.100Z,58.79
2023-02-05T23:08:10.428Z,59.16
2023-02-05T23:10:40.347Z,58.84
2023-02-05T23:13:07.688Z,58.83
2023-02-05T23:15:36.770Z,59.17
2023-02-05T23:18:13.075Z,59.38
2023-02-05T23:20:44.726Z,59.22
2023-02-05T23:23:11.684Z,60.46
2023-02-05T23:25:55.780Z,60.95
2023-02-05T23:28:43.898Z,60.61
2023-02-05T23:31:58.920Z,60.88
2023-02-05T23:34:38.136Z,60.96
2023-02-05T23:37:23.533Z,60.84
2023-02-05T23:40:29.097Z,61.97
2023-02-05T23:42:57.734Z,60.79
2023-02-05T23:45:25.064Z,59.99
2023-02-05T23:48:01.883Z,59.32
2023-02-05T23:50:37.962Z,59.78
2023-02-05T23:53:05.321Z,59.79
2023-02-05T23:55:32.412Z,59.12
2023-02-05T23:58:25.087Z,59.01
